createdAt,value
2019-05-02T00:00:56.903Z,46.60
2019-05-02T00:03:26.168Z,46.60
2019-05-02T00:05:54.577Z,46.50
2019-05-02T00:08:22.964Z,46.50
2019-05-02T00:10:51.657Z,46.60
2019-05-02T00:13:20.120Z,46.60
2019-05-02T00:15:50.112Z,46.60
2019-05-02T00:18:18.771Z,46.70
2019-05-02T00:20:47.186Z,46.60
2019-05-02T00:23:15.651Z,46.60
2019-05-02T00:25:47.320Z,46.60
2019-05-02T00:28:14.125Z,46.60
2019-05-02T00:30:42.521Z,46.60
2019-05-02T00:33:10.904Z,46.60
2019-05-02T00:35:40.746Z,46.60
2019-05-02T00:38:09.352Z,46.60
2019-05-02T00:40:37.764Z,46.60
2019-05-02T00:43:06.147Z,46.50
2019-05-02T00:45:34.563Z,46.50
2019-05-02T00:48:10.628Z,46.40
2019-05-02T00:50:40.692Z,46.40
2019-05-02T00:53:12.112Z,46.40
2019-05-02T00:55:40.102Z,46.40
2019-05-02T00:58:08.492Z,46.50
2019-05-02T01:00:38.541Z,46.50
2019-05-02T01:03:11.081Z,46.50
2019-05-02T01:05:38.441Z,46.40
2019-05-02T01:08:07.395Z,46.50
2019-05-02T01:10:35.799Z,46.50
2019-05-02T01:13:04.191Z,47.10
2019-05-02T01:15:32.627Z,46.50
2019-05-02T01:18:05.510Z,46.50
2019-05-02T01:20:31.044Z,46.50
2019-05-02T01:22:59.435Z,46.60
2019-05-02T01:25:27.817Z,46.50
2019-05-02T01:28:17.504Z,46.50
2019-05-02T01:30:44.600Z,46.50
2019-05-02T01:33:17.370Z,46.50
2019-05-02T01:36:06.307Z,46.50
2019-05-02T01:38:35.086Z,46.50
2019-05-02T01:41:03.475Z,46.50
2019-05-02T01:43:32.137Z,46.50
2019-05-02T01:46:00.529Z,46.50
2019-05-02T01:48:28.923Z,46.50
2019-05-02T01:50:57.308Z,46.40
2019-05-02T01:53:29.293Z,46.40
2019-05-02T01:55:57.709Z,46.30
2019-05-02T01:58:25.780Z,46.40
2019-05-02T02:00:54.169Z,46.50
2019-05-02T02:03:22.560Z,46.50
2019-05-02T02:05:50.955Z,46.50
2019-05-02T02:08:19.349Z,46.50
2019-05-02T02:10:50.587Z,46.50
2019-05-02T02:13:17.782Z,46.50
2019-05-02T02:15:46.243Z,46.50
2019-05-02T02:18:15.815Z,46.50
2019-05-02T02:20:49.101Z,46.50
2019-05-02T02:23:23.687Z,46.50
2019-05-02T02:25:53.724Z,46.50
2019-05-02T02:28:22.125Z,46.40
2019-05-02T02:30:50.551Z,46.50
2019-05-02T02:33:19.147Z,46.50
2019-05-02T02:35:50.633Z,46.50
2019-05-02T02:38:17.553Z,46.40
2019-05-02T02:40:45.945Z,46.40
2019-05-02T02:43:32.832Z,46.50
2019-05-02T02:45:51.832Z,46.60
2019-05-02T02:48:19.027Z,46.40
2019-05-02T02:50:47.455Z,46.40
2019-05-02T02:53:18.101Z,46.30
2019-05-02T02:55:47.526Z,46.30
2019-05-02T02:58:15.929Z,46.30
2019-05-02T03:00:47.614Z,46.30
2019-05-02T03:03:14.363Z,46.40
2019-05-02T03:05:42.751Z,46.40
2019-05-02T03:08:11.140Z,46.70
2019-05-02T03:10:44.775Z,46.50
2019-05-02T03:13:15.018Z,46.50
2019-05-02T03:15:48.707Z,46.40
2019-05-02T03:18:17.092Z,46.40
2019-05-02T03:20:45.480Z,46.50
2019-05-02T03:23:15.121Z,46.40
2019-05-02T03:25:50.788Z,46.40
2019-05-02T03:28:18.672Z,45.90
2019-05-02T03:30:43.995Z,46.40
2019-05-02T03:33:12.750Z,46.40
2019-05-02T03:35:48.050Z,46.40
2019-05-02T03:38:11.342Z,46.20
2019-05-02T03:40:41.416Z,46.50
2019-05-02T03:43:09.977Z,46.50
2019-05-02T03:45:42.887Z,46.50
2019-05-02T03:48:08.771Z,46.50
2019-05-02T03:50:37.162Z,46.50
2019-05-02T03:53:05.578Z,46.30
2019-05-02T03:55:34.511Z,46.30
2019-05-02T03:58:12.853Z,46.30
2019-05-02T04:00:32.941Z,46.20
2019-05-02T04:03:02.534Z,46.30
2019-05-02T04:05:33.791Z,46.30
2019-05-02T04:08:01.167Z,46.40
2019-05-02T04:10:52.946Z,46.60
2019-05-02T04:13:18.116Z,46.40
2019-05-02T04:15:46.498Z,46.90
2019-05-02T04:18:17.579Z,46.70
2019-05-02T04:20:49.702Z,46.50
2019-05-02T04:23:21.448Z,46.50
2019-05-02T04:25:45.801Z,46.50
2019-05-02T04:28:14.545Z,46.60
2019-05-02T04:30:45.144Z,46.50
2019-05-02T04:33:12.985Z,46.70
2019-05-02T04:35:41.379Z,47.00
2019-05-02T04:38:19.729Z,47.40
2019-05-02T04:40:41.772Z,47.30
2019-05-02T04:43:11.458Z,48.00
2019-05-02T04:45:53.126Z,47.70
2019-05-02T04:48:10.079Z,48.30
2019-05-02T04:50:38.479Z,47.80
2019-05-02T04:53:08.585Z,47.90
2019-05-02T04:55:38.066Z,48.10
2019-05-02T04:58:08.320Z,48.00
2019-05-02T05:00:39.053Z,48.30
2019-05-02T05:03:15.217Z,48.20
2019-05-02T05:05:37.759Z,48.10
2019-05-02T05:08:07.778Z,48.60
2019-05-02T05:10:41.479Z,49.00
2019-05-02T05:13:07.765Z,48.80
2019-05-02T05:15:44.849Z,48.80
2019-05-02T05:18:10.394Z,48.60
2019-05-02T05:20:38.471Z,48.50
2019-05-02T05:23:08.173Z,48.40
2019-05-02T05:25:38.120Z,48.40
2019-05-02T05:28:08.827Z,48.40
2019-05-02T05:30:39.575Z,48.80
2019-05-02T05:33:07.580Z,48.40
2019-05-02T05:35:38.574Z,48.20
2019-05-02T05:38:07.761Z,48.10
2019-05-02T05:40:37.627Z,48.00
2019-05-02T05:43:14.156Z,48.00
2019-05-02T05:45:48.744Z,48.00
2019-05-02T05:48:08.144Z,48.00
2019-05-02T05:50:37.714Z,48.20
2019-05-02T05:53:07.923Z,48.00
2019-05-02T05:55:38.298Z,48.20
2019-05-02T05:58:15.087Z,48.30
2019-05-02T06:00:38.033Z,48.20
2019-05-02T06:03:13.054Z,48.00
2019-05-02T06:05:40.499Z,48.30
2019-05-02T06:08:08.194Z,48.30
2019-05-02T06:10:38.974Z,48.30
2019-05-02T06:13:10.885Z,48.30
2019-05-02T06:15:39.071Z,48.20
2019-05-02T06:18:06.876Z,48.20
2019-05-02T06:20:35.299Z,48.00
2019-05-02T06:23:03.698Z,48.00
2019-05-02T06:25:36.315Z,47.80
2019-05-02T06:28:05.184Z,47.90
2019-05-02T06:30:32.370Z,48.00
2019-05-02T06:33:00.771Z,47.90
2019-05-02T06:35:29.271Z,47.80
2019-05-02T06:37:57.660Z,47.70
2019-05-02T06:40:26.075Z,47.70
2019-05-02T06:42:54.458Z,47.70
2019-05-02T06:45:22.871Z,47.70
2019-05-02T06:47:51.256Z,47.60
2019-05-02T06:50:19.839Z,47.60
2019-05-02T06:52:48.229Z,47.70
2019-05-02T06:55:16.647Z,47.60
2019-05-02T06:57:45.039Z,47.50
2019-05-02T07:00:13.447Z,47.60
2019-05-02T07:02:41.834Z,47.50
2019-05-02T07:05:10.222Z,47.50
2019-05-02T07:07:38.614Z,47.40
2019-05-02T07:10:07.620Z,47.30
2019-05-02T07:12:37.688Z,47.40
2019-05-02T07:15:08.582Z,47.40
2019-05-02T07:17:41.322Z,47.30
2019-05-02T07:20:10.445Z,47.50
2019-05-02T07:22:40.784Z,47.40
2019-05-02T07:25:09.042Z,47.50
2019-05-02T07:27:39.197Z,47.50
2019-05-02T07:30:07.575Z,47.50
2019-05-02T07:32:36.031Z,47.50
2019-05-02T07:35:06.150Z,47.60
2019-05-02T07:37:34.548Z,47.50
2019-05-02T07:40:03.703Z,47.50
2019-05-02T07:42:32.085Z,47.50
2019-05-02T07:45:04.425Z,47.50
2019-05-02T07:47:34.603Z,47.50
2019-05-02T07:50:05.315Z,47.70
2019-05-02T07:52:33.630Z,47.60
2019-05-02T07:55:02.428Z,47.70
2019-05-02T07:57:32.392Z,47.70
2019-05-02T08:00:02.754Z,47.60
2019-05-02T08:02:30.851Z,47.60
2019-05-02T08:04:59.238Z,47.80
2019-05-02T08:07:34.161Z,47.60
2019-05-02T08:09:57.675Z,47.50
2019-05-02T08:12:26.058Z,47.40
2019-05-02T08:14:54.550Z,47.50
2019-05-02T08:17:22.950Z,47.50
2019-05-02T08:19:51.351Z,47.40
2019-05-02T08:22:19.743Z,47.40
2019-05-02T08:24:48.130Z,47.40
2019-05-02T08:27:23.927Z,47.30
2019-05-02T08:29:53.375Z,47.30
2019-05-02T08:32:21.954Z,47.30
2019-05-02T08:34:52.008Z,47.40
2019-05-02T08:37:20.406Z,47.30
2019-05-02T08:39:48.785Z,47.30
2019-05-02T08:42:17.170Z,47.40
2019-05-02T08:44:51.414Z,47.60
2019-05-02T08:47:19.039Z,47.70
2019-05-02T08:49:49.265Z,48.00
2019-05-02T08:52:15.664Z,48.20
2019-05-02T08:54:44.070Z,48.30
2019-05-02T08:57:12.458Z,48.30
2019-05-02T08:59:41.019Z,48.30
2019-05-02T09:02:09.462Z,48.40
2019-05-02T09:04:37.929Z,48.40
2019-05-02T09:07:06.333Z,48.60
2019-05-02T09:09:34.719Z,48.60
2019-05-02T09:12:12.053Z,48.70
2019-05-02T09:14:33.151Z,48.60
2019-05-02T09:17:08.832Z,48.50
2019-05-02T09:19:34.623Z,48.60
2019-05-02T09:22:02.549Z,48.50
2019-05-02T09:24:32.611Z,48.50
2019-05-02T09:27:02.529Z,48.40
2019-05-02T09:29:32.681Z,48.30
2019-05-02T09:32:02.145Z,48.30
2019-05-02T09:34:31.901Z,48.30
2019-05-02T09:37:02.569Z,48.30
2019-05-02T09:39:32.698Z,48.30
2019-05-02T09:42:02.162Z,48.20
2019-05-02T09:44:30.754Z,48.20
2019-05-02T09:46:59.144Z,48.20
2019-05-02T09:49:27.552Z,48.80
2019-05-02T09:51:59.709Z,48.20
2019-05-02T09:54:26.009Z,48.10
2019-05-02T09:56:54.407Z,48.10
2019-05-02T09:59:30.131Z,48.10
2019-05-02T10:01:54.606Z,48.10
2019-05-02T10:04:23.082Z,48.10
2019-05-02T10:06:52.475Z,48.10
2019-05-02T10:09:24.373Z,48.10
2019-05-02T10:11:52.550Z,48.10
2019-05-02T10:14:22.583Z,48.30
2019-05-02T10:16:52.989Z,48.10
2019-05-02T10:19:25.728Z,48.10
2019-05-02T10:21:52.473Z,48.10
2019-05-02T10:24:22.206Z,47.90
2019-05-02T10:26:55.259Z,47.80
2019-05-02T10:29:28.144Z,47.80
2019-05-02T10:31:52.622Z,47.90
2019-05-02T10:34:22.592Z,47.90
2019-05-02T10:36:53.861Z,48.10
2019-05-02T10:39:23.175Z,48.20
2019-05-02T10:41:52.639Z,48.20
2019-05-02T10:44:22.546Z,48.20
2019-05-02T10:46:58.813Z,48.20
2019-05-02T10:49:34.677Z,48.20
2019-05-02T10:52:03.054Z,48.20
2019-05-02T10:54:37.545Z,48.20
2019-05-02T10:57:05.010Z,48.10
2019-05-02T10:59:35.042Z,48.10
2019-05-02T11:02:12.894Z,48.20
2019-05-02T11:04:43.678Z,48.20
2019-05-02T11:07:16.943Z,48.30
2019-05-02T11:09:43.516Z,48.30
2019-05-02T11:12:16.342Z,48.30
2019-05-02T11:14:45.192Z,48.20
2019-05-02T11:17:18.229Z,48.20
2019-05-02T11:19:54.644Z,48.20
2019-05-02T11:22:23.036Z,48.30
2019-05-02T11:24:52.368Z,48.30
2019-05-02T11:27:22.142Z,48.20
2019-05-02T11:29:52.498Z,48.20
2019-05-02T11:32:22.106Z,48.30
2019-05-02T11:41:57.521Z,47.90
2019-05-02T11:44:25.938Z,48.40
2019-05-02T11:46:54.353Z,48.40
2019-05-02T11:49:22.905Z,48.20
2019-05-02T11:51:52.685Z,47.90
2019-05-02T11:54:22.655Z,47.40
2019-05-02T11:56:53.356Z,47.00
2019-05-02T11:59:27.705Z,46.70
2019-05-02T12:02:02.698Z,46.40
2019-05-02T12:04:32.578Z,45.40
2019-05-02T12:07:04.769Z,45.30
2019-05-02T12:09:31.941Z,46.10
2019-05-02T12:12:02.410Z,45.30
2019-05-02T12:14:32.872Z,45.20
2019-05-02T12:17:02.497Z,44.70
2019-05-02T12:19:32.227Z,45.10
2019-05-02T12:22:02.681Z,45.10
2019-05-02T12:24:31.898Z,44.80
2019-05-02T12:27:02.577Z,45.00
2019-05-02T12:29:31.136Z,45.00
2019-05-02T12:31:59.556Z,46.10
2019-05-02T12:34:27.944Z,45.60
2019-05-02T12:36:56.350Z,45.00
2019-05-02T12:39:24.736Z,44.70
2019-05-02T12:41:54.141Z,44.80
2019-05-02T12:44:22.715Z,45.50
2019-05-02T12:46:51.772Z,44.80
2019-05-02T12:49:26.870Z,45.50
2019-05-02T12:51:52.266Z,45.00
2019-05-02T12:54:21.935Z,44.50
2019-05-02T12:56:52.639Z,44.30
2019-05-02T12:59:22.377Z,44.40
2019-05-02T13:01:51.810Z,44.20
2019-05-02T13:04:22.801Z,44.20
2019-05-02T13:06:52.803Z,44.40
2019-05-02T13:09:20.764Z,45.00
2019-05-02T13:11:59.877Z,44.60
2019-05-02T13:14:31.724Z,44.30
2019-05-02T13:17:02.205Z,44.80
2019-05-02T13:19:38.039Z,44.40
2019-05-02T13:22:04.475Z,44.30
2019-05-02T13:24:34.530Z,43.80
2019-05-02T13:27:04.387Z,43.80
2019-05-02T13:29:33.043Z,43.80
2019-05-02T13:57:43.023Z,99.90
2019-05-02T14:00:13.156Z,80.30
2019-05-02T14:02:42.958Z,80.90
2019-05-02T14:05:13.497Z,80.20
2019-05-02T14:20:25.627Z,80.10
2019-05-02T14:22:53.414Z,79.90
2019-05-02T14:25:22.399Z,79.30
2019-05-02T14:27:53.203Z,80.90
2019-05-02T14:30:35.660Z,80.70
2019-05-02T14:32:52.231Z,78.70
2019-05-02T14:35:28.447Z,79.70
2019-05-02T14:38:12.847Z,80.60
2019-05-02T14:41:02.793Z,80.50
2019-05-02T14:43:53.041Z,80.50
2019-05-02T14:46:22.241Z,80.70
2019-05-02T14:48:52.320Z,80.60
2019-05-02T14:51:25.945Z,81.20
2019-05-02T14:53:52.558Z,81.20
2019-05-02T14:56:23.587Z,81.40
2019-05-02T14:58:52.805Z,81.50
2019-05-02T15:01:22.539Z,81.40
2019-05-02T15:03:52.965Z,81.30
2019-05-02T15:06:23.775Z,81.30
2019-05-02T15:08:52.674Z,81.20
2019-05-02T15:11:30.333Z,81.40
2019-05-02T15:13:52.454Z,81.20
2019-05-02T15:16:24.948Z,81.40
2019-05-02T15:18:53.180Z,81.50
2019-05-02T15:21:22.935Z,81.60
2019-05-02T15:23:54.317Z,81.50
2019-05-02T15:26:26.244Z,81.70
2019-05-02T15:28:52.142Z,81.80
2019-05-02T15:31:24.229Z,81.70
2019-05-02T15:34:01.557Z,81.60
2019-05-02T15:36:32.286Z,81.60
2019-05-02T15:41:32.603Z,81.50
2019-05-02T15:44:02.016Z,81.50
2019-05-02T15:46:31.904Z,81.70
2019-05-02T15:49:01.753Z,81.70
2019-05-02T15:51:32.758Z,81.80
2019-05-02T15:54:08.904Z,81.80
2019-05-02T15:57:05.516Z,81.90
2019-05-02T15:59:37.646Z,82.00
2019-05-02T16:02:06.599Z,82.70
2019-05-02T16:04:36.815Z,82.00
2019-05-02T16:07:08.339Z,82.00
2019-05-02T16:09:35.858Z,82.10
2019-05-02T16:12:05.127Z,82.10
2019-05-02T16:14:35.979Z,82.20
2019-05-02T16:17:04.347Z,82.20
2019-05-02T16:19:34.554Z,82.10
2019-05-02T16:22:22.691Z,82.10
2019-05-02T16:24:53.349Z,82.00
2019-05-02T16:27:25.376Z,81.90
2019-05-02T16:29:53.463Z,81.70
2019-05-02T16:32:30.907Z,81.80
2019-05-02T16:35:12.173Z,81.80
2019-05-02T16:37:34.219Z,81.80
2019-05-02T16:40:03.057Z,81.90
2019-05-02T16:42:32.844Z,82.60
2019-05-02T16:45:02.591Z,81.70
2019-05-02T16:47:32.604Z,81.70
2019-05-02T16:50:02.464Z,81.90
2019-05-02T16:52:32.736Z,81.90
2019-05-02T16:55:02.903Z,82.00
2019-05-02T16:57:34.861Z,82.00
2019-05-02T17:00:05.948Z,81.90
2019-05-02T17:02:32.494Z,82.10
2019-05-02T17:05:08.273Z,82.00
2019-05-02T17:07:39.496Z,82.10
2019-05-02T17:10:17.538Z,82.10
2019-05-02T17:12:47.211Z,82.30
2019-05-02T17:15:34.961Z,82.40
2019-05-02T17:18:04.975Z,83.00
2019-05-02T17:20:32.068Z,84.50
2019-05-02T17:23:03.312Z,84.70
2019-05-02T17:25:32.235Z,85.80
2019-05-02T17:28:05.788Z,86.00
2019-05-02T17:30:38.750Z,86.00
2019-05-02T17:33:01.910Z,86.30
2019-05-02T17:35:32.441Z,88.40
2019-05-02T17:38:02.552Z,88.20
2019-05-02T17:40:31.213Z,86.20
2019-05-02T17:43:04.897Z,87.40
2019-05-02T17:45:33.309Z,87.90
2019-05-02T17:48:00.517Z,88.10
2019-05-02T17:50:49.304Z,88.20
2019-05-02T17:53:17.491Z,87.40
2019-05-02T17:55:46.058Z,87.60
2019-05-02T17:58:16.595Z,86.90
2019-05-02T18:00:47.429Z,86.60
2019-05-02T18:03:16.968Z,86.80
2019-05-02T18:05:45.541Z,86.90
2019-05-02T18:08:14.894Z,87.00
2019-05-02T18:10:44.096Z,86.80
2019-05-02T18:13:12.701Z,86.80
2019-05-02T18:15:41.811Z,86.40
2019-05-02T18:18:10.482Z,86.40
2019-05-02T18:20:42.683Z,86.80
2019-05-02T18:23:09.314Z,86.60
2019-05-02T18:25:37.881Z,86.30
2019-05-02T18:28:06.516Z,86.40
2019-05-02T18:30:35.094Z,86.50
2019-05-02T18:33:07.193Z,86.50
2019-05-02T18:35:37.444Z,86.40
2019-05-02T18:38:05.182Z,86.40
2019-05-02T18:40:33.764Z,86.50
2019-05-02T18:43:05.288Z,86.40
2019-05-02T18:45:32.644Z,86.30
2019-05-02T18:48:05.166Z,86.80
2019-05-02T18:50:41.568Z,86.10
2019-05-02T18:53:08.943Z,85.90
2019-05-02T18:55:37.879Z,86.00
2019-05-02T18:58:07.199Z,85.90
2019-05-02T19:00:39.546Z,85.70
2019-05-02T19:03:13.302Z,86.20
2019-05-02T19:05:38.927Z,85.40
2019-05-02T19:08:07.727Z,85.40
2019-05-02T19:10:37.157Z,84.50
2019-05-02T19:13:06.935Z,86.10
2019-05-02T19:15:39.610Z,85.80
2019-05-02T19:18:10.634Z,85.40
2019-05-02T19:20:39.472Z,84.90
2019-05-02T19:23:08.110Z,84.70
2019-05-02T19:25:36.704Z,85.70
2019-05-02T19:28:09.617Z,85.10
2019-05-02T19:30:39.858Z,85.00
2019-05-02T19:33:08.423Z,84.90
2019-05-02T19:35:37.624Z,85.00
2019-05-02T19:38:07.217Z,85.00
2019-05-02T19:40:35.796Z,85.10
2019-05-02T19:43:07.722Z,85.00
2019-05-02T19:45:34.664Z,84.70
2019-05-02T19:48:03.243Z,84.70
2019-05-02T19:50:39.193Z,84.60
2019-05-02T19:53:04.711Z,84.60
2019-05-02T19:55:33.753Z,84.50
2019-05-02T19:58:06.327Z,84.60
2019-05-02T20:00:36.613Z,84.40
2019-05-02T20:03:02.987Z,84.60
2019-05-02T20:05:32.293Z,84.50
2019-05-02T20:08:02.508Z,84.20
2019-05-02T20:10:32.184Z,84.10
2019-05-02T20:13:02.888Z,83.70
2019-05-02T20:15:32.922Z,83.50
2019-05-02T20:18:04.775Z,83.10
2019-05-02T20:20:48.968Z,82.90
2019-05-02T20:23:18.661Z,82.60
2019-05-02T20:25:47.894Z,82.60
2019-05-02T20:28:16.538Z,82.30
2019-05-02T20:30:45.157Z,82.30
2019-05-02T20:33:13.735Z,82.00
2019-05-02T20:35:42.310Z,82.80
2019-05-02T20:38:11.758Z,82.10
2019-05-02T20:40:42.658Z,82.00
2019-05-02T20:43:12.169Z,82.10
2019-05-02T20:45:40.890Z,82.00
2019-05-02T20:48:11.761Z,81.90
2019-05-02T20:50:39.813Z,81.60
2019-05-02T20:53:08.546Z,81.80
2019-05-02T20:55:37.115Z,81.70
2019-05-02T20:58:05.827Z,81.50
2019-05-02T21:00:34.706Z,81.50
2019-05-02T21:03:03.273Z,81.60
2019-05-02T21:05:36.349Z,81.40
2019-05-02T21:08:18.931Z,81.20
2019-05-02T21:10:49.285Z,81.30
2019-05-02T21:13:17.859Z,81.10
2019-05-02T21:15:46.431Z,81.20
2019-05-02T21:18:15.167Z,81.10
2019-05-02T21:20:43.739Z,80.90
2019-05-02T21:23:12.306Z,81.10
2019-05-02T21:25:41.732Z,81.00
2019-05-02T21:28:11.924Z,80.90
2019-05-02T21:30:41.642Z,80.90
2019-05-02T21:33:33.933Z,80.80
2019-05-02T21:36:02.653Z,80.70
2019-05-02T21:38:31.957Z,80.60
2019-05-02T21:41:00.660Z,80.50
2019-05-02T21:43:29.240Z,80.50
2019-05-02T21:45:57.801Z,80.50
2019-05-02T21:48:27.847Z,80.50
2019-05-02T21:51:02.562Z,80.40
2019-05-02T21:53:54.199Z,80.40
2019-05-02T21:56:13.507Z,80.30
2019-05-02T21:58:43.719Z,80.30
2019-05-02T22:01:14.102Z,80.30
2019-05-02T22:03:42.747Z,80.30
2019-05-02T22:06:12.254Z,80.40
2019-05-02T22:08:41.792Z,80.20
2019-05-02T22:11:12.226Z,80.20
2019-05-02T22:13:42.342Z,80.10
2019-05-02T22:16:12.806Z,80.00
2019-05-02T22:18:42.765Z,79.80
2019-05-02T22:21:12.287Z,80.00
2019-05-02T22:23:42.551Z,80.70
2019-05-02T22:26:12.764Z,79.80
2019-05-02T22:28:41.561Z,79.80
2019-05-02T22:31:12.164Z,79.90
2019-05-02T22:33:44.327Z,79.80
2019-05-02T22:36:12.278Z,79.80
2019-05-02T22:38:54.226Z,79.70
2019-05-02T22:41:22.781Z,79.60
2019-05-02T22:43:51.375Z,79.60
2019-05-02T22:46:24.254Z,79.60
2019-05-02T22:48:52.841Z,79.60
2019-05-02T22:51:22.490Z,79.60
2019-05-02T22:53:52.161Z,79.50
2019-05-02T22:56:22.258Z,79.40
2019-05-02T22:58:51.529Z,79.40
2019-05-02T23:01:21.621Z,79.40
2019-05-02T23:03:50.238Z,79.30
2019-05-02T23:06:18.799Z,79.30
2019-05-02T23:08:47.375Z,79.10
2019-05-02T23:11:15.948Z,79.00
2019-05-02T23:13:44.519Z,79.00
2019-05-02T23:16:13.096Z,79.00
2019-05-02T23:18:42.630Z,79.00
2019-05-02T23:21:12.714Z,78.90
2019-05-02T23:23:41.805Z,78.90
2019-05-02T23:26:22.458Z,78.90
2019-05-02T23:28:55.454Z,78.80
2019-05-02T23:31:24.028Z,78.80
2019-05-02T23:33:58.357Z,78.70
2019-05-02T23:36:32.485Z,78.80
2019-05-02T23:39:02.038Z,78.60
2019-05-02T23:41:32.716Z,78.60
2019-05-02T23:44:02.648Z,78.60
2019-05-02T23:46:31.036Z,78.50
2019-05-02T23:48:59.597Z,78.50
2019-05-02T23:51:28.166Z,78.50
2019-05-02T23:53:56.725Z,78.30
2019-05-02T23:56:25.304Z,78.30
2019-05-02T23:58:53.880Z,78.30
